No.10 Hasshomaru — JD2992 — position and weather

sailwx.info

Track history (hours):
 
Tides and Currents Weather Stations Pressure Air Temp Water Temp Dewpoint Dewpoint Depression Visibility Wind Speed Wind Dir Waves Ship Positions

No.10 Hasshomaru

Last reported at 2015-Jan-07 17:30 UTC. Time now 2015-Mar-03 20:26 UTC.
Position N 34°03' E 130°51'.
Warning: this ship's position is 55 days out of date.

Length 105 m; draft 5.1 m.

Type: Tanker. MMSI: 431001112.

Date/timePositionNaut miles runAvg speedWind from/ knotsBaromVisibWave heightAir tempDewpointWater temp
2015-Jan-07 17:30N 34°03' E 130°51'5 0.2
2015-Jan-06 07:21N 34°02' E 130°45'1814.6
2015-Jan-06 06:06N 33°57' E 130°24'814.0
2015-Jan-06 05:33N 33°50' E 130°20'1212.0
2015-Jan-06 04:33N 33°38' E 130°21'3 2.5
2015-Jan-06 03:33N 33°36' E 130°23'0 0.0
2015-Jan-06 02:33N 33°36' E 130°23'0 0.0
2015-Jan-06 01:33N 33°36' E 130°23'0 0.0
2015-Jan-06 00:33N 33°36' E 130°23'0 0.0
2015-Jan-05 23:32N 33°36' E 130°23'2 2.4
2015-Jan-05 22:33N 33°38' E 130°21'8 8.0
2015-Jan-05 21:33N 33°45' E 130°17'230 6.4
2015-Jan-04 09:33N 34°34' E 134°48'1414.0
2015-Jan-04 08:33N 34°35' E 135°05'1514.7
2015-Jan-04 07:33N 34°33' E 135°23'2 0.2
2015-Jan-03 23:10N 34°32' E 135°25'2 3.7
2015-Jan-03 22:33N 34°33' E 135°22'4 3.7
2015-Jan-03 21:29N 34°33' E 135°18'0 0.0
2015-Jan-03 20:23N 34°33' E 135°18'0 0.1
2015-Jan-03 19:33N 34°33' E 135°17'1313.3
2015-Jan-03 18:33N 34°36' E 135°02'  
Track history (hours):
 
Tides and Currents Weather Stations Pressure Air Temp Water Temp Dewpoint Dewpoint Depression Visibility Wind Speed Wind Dir Waves Ship Positions

No.10 Hasshomaru

Last reported at 2015-Jan-07 17:30 UTC. Time now 2015-Mar-03 20:26 UTC.
Position N 34°03' E 130°51'.
Warning: this ship's position is 55 days out of date.

Length 105 m; draft 5.1 m.

Type: Tanker. MMSI: 431001112.

Date/timePositionNaut miles runAvg speedWind from/ knotsBaromVisibWave heightAir tempDewpointWater temp
2015-Jan-07 17:30N 34°03' E 130°51'5 0.2
2015-Jan-06 07:21N 34°02' E 130°45'1814.6
2015-Jan-06 06:06N 33°57' E 130°24'814.0
2015-Jan-06 05:33N 33°50' E 130°20'1212.0
2015-Jan-06 04:33N 33°38' E 130°21'3 2.5
2015-Jan-06 03:33N 33°36' E 130°23'0 0.0
2015-Jan-06 02:33N 33°36' E 130°23'0 0.0
2015-Jan-06 01:33N 33°36' E 130°23'0 0.0
2015-Jan-06 00:33N 33°36' E 130°23'0 0.0
2015-Jan-05 23:32N 33°36' E 130°23'2 2.4
2015-Jan-05 22:33N 33°38' E 130°21'8 8.0
2015-Jan-05 21:33N 33°45' E 130°17'230 6.4
2015-Jan-04 09:33N 34°34' E 134°48'1414.0
2015-Jan-04 08:33N 34°35' E 135°05'1514.7
2015-Jan-04 07:33N 34°33' E 135°23'2 0.2
2015-Jan-03 23:10N 34°32' E 135°25'2 3.7
2015-Jan-03 22:33N 34°33' E 135°22'4 3.7
2015-Jan-03 21:29N 34°33' E 135°18'0 0.0
2015-Jan-03 20:23N 34°33' E 135°18'0 0.1
2015-Jan-03 19:33N 34°33' E 135°17'1313.3
2015-Jan-03 18:33N 34°36' E 135°02'  

Dump ship's entire track history